Balmorhea, TX (79718)

4:58 PM CDT on July 27, 2016 (GMT -0500)
Pecos Municipal | | Change Station

Elev 2612 ft 31.38 °N, 103.51 °W | Updated 23 minutes ago

Scattered Clouds
Scattered Clouds
95 °F
Feels Like 95 °F
N
12
Wind Variable Wind from East
Gusts 20 mph

Today
High -- | Low -- °F
--% Chance of Precip.
Yesterday
High -- | Low -- °F
Precip. -- in
Pressure 29.95 in
Visibility 10.0 miles
Clouds Scattered Clouds 7500 ft
Heat Index 95 °F
Dew Point 59 °F
Humidity 29%
Rainfall 0.00 in
Snow Depth Not available.
7:08 AM 8:52 PM
Last Quarter, 39% visible
METAR KPEQ 272135Z AUTO 10010G17KT 10SM SCT075 35/15 A2995 RMK AO2 T03520149
Pressure 29.95 in
Visibility 10.0 miles
Clouds Scattered Clouds 7500 ft
Heat Index 95 °F
Dew Point 59 °F
Humidity 29%
Rainfall 0.00 in
Snow Depth Not available.
7:08 AM 8:52 PM
Last Quarter, 39% visible
METAR KPEQ 272135Z AUTO 10010G17KT 10SM SCT075 35/15 A2995 RMK AO2 T03520149

10-Day Weather Forecast

Almanac

Astronomy

Jul. 27, 2016 Rise Set
Actual Time
Civil Twilight
Nautical Twilight
Astronomical Twilight
Moon
Length of Visible Light
Length of Day
Tomorrow will be .
, % of the Moon is Illuminated

Today's Extremes

State Highs State Lows

Community

WunderPhotos

Upload Photos

1,927,944 photos uploaded!

WunderBlog® & News

Nearby

Air Quality

  Air Quality AQ Index Pollutant
Not available.

Snow Depth

Station Depth Elevation

Earthquake Activity

City Distance Mag. Time & Date
Minimum magnitude displayed is 2.5.

Coastal Water Temperatures

Place Temperature

Stations

Nearby Weather Stations

Station Location Temp. Windchill Dew Point Humidity Wind Precip. Elev Updated Type
                   

Watches & Warnings

There are currently no watches in effect.